createdAt,value
2019-02-07T00:45:05.205Z,35.67
2019-02-07T00:47:34.212Z,38.90
2019-02-07T00:50:03.308Z,36.57
2019-02-07T00:52:34.965Z,32.73
2019-02-07T00:55:04.108Z,30.13
2019-02-07T00:57:36.425Z,32.97
2019-02-07T01:00:06.330Z,34.33
2019-02-07T01:02:35.203Z,35.63
2019-02-07T01:05:04.371Z,33.03
2019-02-07T01:07:36.013Z,33.87
2019-02-07T01:10:06.454Z,30.20
2019-02-07T01:12:35.982Z,33.40
2019-02-07T01:15:05.370Z,35.33
2019-02-07T01:17:34.441Z,37.60
2019-02-07T01:20:03.298Z,40.77
2019-02-07T01:22:31.984Z,39.30
2019-02-07T01:25:00.726Z,40.07
2019-02-07T01:27:29.991Z,37.13
2019-02-07T01:29:58.649Z,35.90
2019-02-07T01:32:27.797Z,36.10
2019-02-07T01:34:56.604Z,35.20
2019-02-07T01:37:25.699Z,31.00
2019-02-07T01:39:54.729Z,35.70
2019-02-07T01:42:23.559Z,31.33
2019-02-07T01:44:52.443Z,34.83
2019-02-07T01:47:21.350Z,26.93
2019-02-07T01:49:50.034Z,33.03
2019-02-07T01:52:19.006Z,29.43
2019-02-07T01:54:47.766Z,23.37
2019-02-07T01:57:16.894Z,28.93
2019-02-07T01:59:46.206Z,26.20
2019-02-07T02:02:15.243Z,25.10
2019-02-07T02:04:45.111Z,25.10
2019-02-07T02:07:13.956Z,25.63
2019-02-07T02:09:46.276Z,24.70
2019-02-07T02:12:15.280Z,27.87
2019-02-07T02:14:45.028Z,25.10
2019-02-07T02:17:17.053Z,26.47
2019-02-07T02:19:47.753Z,23.87
2019-02-07T02:22:19.768Z,24.90
2019-02-07T02:24:48.829Z,24.93
2019-02-07T02:27:18.058Z,25.17
2019-02-07T02:29:46.776Z,21.40
2019-02-07T02:32:15.987Z,19.50
2019-02-07T02:34:48.070Z,22.63
2019-02-07T02:37:16.855Z,22.07
2019-02-07T02:39:46.444Z,19.17
2019-02-07T02:42:17.215Z,19.67
2019-02-07T02:44:46.289Z,21.30
2019-02-07T02:47:18.462Z,22.87
2019-02-07T02:49:47.255Z,17.67
2019-02-07T02:52:16.087Z,20.43
2019-02-07T02:54:48.457Z,21.03
2019-02-07T02:57:17.244Z,20.03
2019-02-07T02:59:46.299Z,19.37
2019-02-07T03:02:46.935Z,19.03
2019-02-07T03:05:40.293Z,16.43
2019-02-07T03:08:26.750Z,18.53
2019-02-07T03:11:17.632Z,20.03
2019-02-07T03:14:28.854Z,18.10
2019-02-07T03:17:16.880Z,16.87
2019-02-07T03:20:05.472Z,17.13
2019-02-07T03:22:51.874Z,16.07
2019-02-07T03:25:46.401Z,17.27
2019-02-07T03:28:43.827Z,16.00
2019-02-07T03:31:37.175Z,19.20
2019-02-07T03:34:29.422Z,16.17
2019-02-07T03:37:17.678Z,16.83
2019-02-07T03:40:15.709Z,16.73
2019-02-07T03:43:18.644Z,17.07
2019-02-07T03:46:15.834Z,16.03
2019-02-07T03:49:13.750Z,18.57
2019-02-07T03:52:18.201Z,20.37
2019-02-07T03:55:13.659Z,17.93
2019-02-07T03:58:09.305Z,16.23
2019-02-07T04:00:56.522Z,15.23
2019-02-07T04:03:50.680Z,17.00
2019-02-07T06:12:49.055Z,24.50
2019-02-07T06:15:39.969Z,24.60
2019-02-07T06:18:28.244Z,26.47
2019-02-07T06:21:19.233Z,26.57
2019-02-07T06:24:10.114Z,25.03
2019-02-07T06:26:56.380Z,26.43
2019-02-07T06:29:45.733Z,22.37
2019-02-07T06:32:33.483Z,30.00
2019-02-07T06:47:13.266Z,28.87
2019-02-07T06:49:52.063Z,24.50
2019-02-07T06:52:49.354Z,20.97
2019-02-07T06:59:44.713Z,24.97
2019-02-07T07:15:04.508Z,33.73
2019-02-07T07:17:58.678Z,26.87
2019-02-07T07:20:45.082Z,26.80
2019-02-07T07:23:32.802Z,26.00
2019-02-07T07:26:38.926Z,30.50
2019-02-07T07:29:18.378Z,42.20
2019-02-07T07:32:04.515Z,32.23
2019-02-07T07:34:45.988Z,29.30
2019-02-07T07:37:34.293Z,30.77
2019-02-07T07:40:30.886Z,20.37
2019-02-07T07:43:22.853Z,33.63
2019-02-07T07:46:25.630Z,32.90
2019-02-07T07:49:22.330Z,28.80
2019-02-07T07:52:00.430Z,27.17
2019-02-07T07:54:47.153Z,25.20
2019-02-07T07:57:28.309Z,18.70
2019-02-07T08:00:28.675Z,23.27
2019-02-07T08:03:20.577Z,27.27
2019-02-07T08:06:16.564Z,22.77
2019-02-07T08:08:53.507Z,20.23
2019-02-07T08:11:57.395Z,25.63
2019-02-07T08:14:54.019Z,28.47
2019-02-07T08:18:00.638Z,18.03
2019-02-07T08:21:25.435Z,22.03
2019-02-07T08:24:18.401Z,16.77
2019-02-07T08:27:12.399Z,18.73
2019-02-07T08:30:15.141Z,22.87
2019-02-07T08:33:29.354Z,25.77
2019-02-07T08:36:22.636Z,21.67
2019-02-07T08:39:23.492Z,22.70
2019-02-07T08:42:26.174Z,27.90
2019-02-07T08:45:40.528Z,19.10
2019-02-07T08:48:37.901Z,24.53
2019-02-07T08:51:27.841Z,23.63
2019-02-07T08:54:37.561Z,28.93
2019-02-07T08:57:24.470Z,20.83
2019-02-07T09:00:04.859Z,21.63
2019-02-07T09:03:03.457Z,17.10
2019-02-07T09:05:53.960Z,25.60
2019-02-07T09:08:31.021Z,13.10
2019-02-07T09:11:39.707Z,19.53
2019-02-07T09:14:12.160Z,24.13
2019-02-07T09:17:06.349Z,22.77
2019-02-07T09:19:57.440Z,19.43
2019-02-07T09:22:43.840Z,14.23
2019-02-07T09:25:41.137Z,17.43
2019-02-07T09:32:46.817Z,33.00
2019-02-07T09:36:07.036Z,22.57
2019-02-07T09:39:04.524Z,21.07
2019-02-07T09:41:52.378Z,21.90
2019-02-07T09:44:49.120Z,20.63
2019-02-07T09:47:37.109Z,16.07
2019-02-07T09:50:23.081Z,27.40
2019-02-07T09:53:06.874Z,32.87
2019-02-07T09:55:53.252Z,20.60
2019-02-07T09:58:46.481Z,26.57
2019-02-07T10:01:50.059Z,14.83
2019-02-07T10:04:45.369Z,17.33
2019-02-07T10:07:57.461Z,20.33
2019-02-07T10:10:52.346Z,16.07
2019-02-07T10:13:52.456Z,21.80
2019-02-07T10:17:23.357Z,18.03
2019-02-07T10:20:12.535Z,28.87
2019-02-07T10:23:03.422Z,18.57
2019-02-07T10:26:01.596Z,26.70
2019-02-07T10:28:56.921Z,21.50
2019-02-07T10:31:40.756Z,27.30
2019-02-07T10:34:28.082Z,24.60
2019-02-07T10:37:28.293Z,26.00
2019-02-07T10:40:31.371Z,21.63
2019-02-07T10:43:24.984Z,20.33
2019-02-07T10:46:15.964Z,24.37
2019-02-07T10:48:58.001Z,22.03
2019-02-07T10:51:49.731Z,20.03
2019-02-07T10:54:43.720Z,20.50
2019-02-07T10:57:45.810Z,25.13
2019-02-07T11:00:33.823Z,23.23
2019-02-07T11:03:24.853Z,20.63
2019-02-07T11:06:18.562Z,21.97
2019-02-07T11:09:06.178Z,23.33
2019-02-07T11:11:52.566Z,19.53
2019-02-07T11:14:40.704Z,23.47
2019-02-07T11:17:26.617Z,18.17
2019-02-07T11:20:22.666Z,18.67
2019-02-07T11:23:53.008Z,22.43
2019-02-07T12:34:50.207Z,16.87
2019-02-07T12:38:02.637Z,21.67
2019-02-07T12:41:01.310Z,15.00
2019-02-07T12:44:08.178Z,15.03
2019-02-07T12:47:16.834Z,11.80
2019-02-07T12:53:54.511Z,12.87
2019-02-07T12:56:51.636Z,26.03
2019-02-07T12:59:48.026Z,15.87
2019-02-07T13:03:20.681Z,16.37
2019-02-07T13:06:32.782Z,14.57
2019-02-07T13:09:37.103Z,13.57
2019-02-07T13:12:31.598Z,15.03
2019-02-07T13:15:34.151Z,10.50
2019-02-07T13:18:33.314Z,19.33
2019-02-07T13:21:36.246Z,17.70
2019-02-07T13:25:01.770Z,8.60
2019-02-07T13:31:02.355Z,18.40
2019-02-07T13:34:20.775Z,18.67
2019-02-07T13:40:26.017Z,12.10
2019-02-07T13:43:22.225Z,20.33
2019-02-07T13:46:13.740Z,20.20
2019-02-07T13:49:23.076Z,13.30
2019-02-07T13:52:15.999Z,15.43
2019-02-07T13:55:21.483Z,15.50
2019-02-07T13:58:17.740Z,12.83
2019-02-07T14:01:27.733Z,20.63
2019-02-07T14:04:24.058Z,14.40
2019-02-07T14:07:15.511Z,16.20
2019-02-07T14:10:21.839Z,14.60
2019-02-07T14:13:29.884Z,14.57
2019-02-07T14:20:06.694Z,15.83
2019-02-07T14:22:59.028Z,17.07
2019-02-07T14:25:39.243Z,18.13
2019-02-07T14:28:27.170Z,13.67
2019-02-07T14:31:13.477Z,16.23
2019-02-07T14:34:00.707Z,17.43
2019-02-07T14:36:47.314Z,17.43
2019-02-07T14:39:38.648Z,14.00
2019-02-07T14:42:25.592Z,17.50
2019-02-07T14:45:10.149Z,18.87
2019-02-07T14:52:46.048Z,20.63
2019-02-07T14:54:29.118Z,23.60
2019-02-07T14:57:41.816Z,16.93
2019-02-07T15:01:10.431Z,11.97
2019-02-07T15:10:26.188Z,21.23
2019-02-07T15:13:31.116Z,15.20
2019-02-07T15:19:33.663Z,17.80
2019-02-07T15:26:50.636Z,19.20
2019-02-07T15:32:54.604Z,22.80
2019-02-07T15:35:51.766Z,19.50
2019-02-07T15:38:53.479Z,24.30
2019-02-07T15:41:36.903Z,21.00
2019-02-07T15:44:12.381Z,24.97
2019-02-07T15:46:41.891Z,25.00
2019-02-07T15:49:10.928Z,25.80
2019-02-07T15:51:42.997Z,16.77
2019-02-07T17:24:15.479Z,29.47
2019-02-07T18:01:33.282Z,24.13
2019-02-07T18:04:10.122Z,25.33
2019-02-07T18:06:47.277Z,20.27
2019-02-07T18:09:30.870Z,21.63
2019-02-07T18:12:03.133Z,22.80
2019-02-07T18:14:33.284Z,28.80
2019-02-07T18:17:07.956Z,19.67
2019-02-07T18:19:43.375Z,25.40
2019-02-07T18:22:23.650Z,23.87
2019-02-07T18:24:51.432Z,26.83
2019-02-07T18:27:42.020Z,22.90
2019-02-07T18:30:16.167Z,19.63
2019-02-07T18:32:42.823Z,19.33
2019-02-07T18:35:16.376Z,23.23
2019-02-07T18:40:46.771Z,31.33
2019-02-07T19:18:12.101Z,25.43
